createdAt,value
2019-01-29T00:01:41.570Z,100126.38
2019-01-29T00:06:34.352Z,100128.28
2019-01-29T00:11:27.260Z,100128.81
2019-01-29T00:16:20.050Z,100129.70
2019-01-29T00:21:12.888Z,100126.47
2019-01-29T00:26:05.760Z,100127.05
2019-01-29T00:30:58.803Z,100129.26
2019-01-29T00:35:51.678Z,100130.53
2019-01-29T00:40:44.494Z,100136.18
2019-01-29T00:45:37.332Z,100138.05
2019-01-29T00:50:30.140Z,100150.69
2019-01-29T00:55:23.220Z,100148.63
2019-01-29T01:00:19.195Z,100156.59
2019-01-29T01:05:12.581Z,100157.73
2019-01-29T01:10:10.132Z,100158.95
2019-01-29T01:15:04.088Z,100164.41
2019-01-29T01:19:56.932Z,100157.47
2019-01-29T01:24:49.789Z,100171.89
2019-01-29T01:29:42.619Z,100177.27
2019-01-29T01:34:35.564Z,100184.78
2019-01-29T01:39:28.437Z,100185.53
2019-01-29T01:44:21.268Z,100187.92
2019-01-29T01:49:14.126Z,100193.73
2019-01-29T01:54:06.959Z,100191.60
2019-01-29T01:58:59.829Z,100189.41
2019-01-29T02:03:52.671Z,100190.20
2019-01-29T02:08:45.526Z,100190.92
2019-01-29T02:13:38.353Z,100196.08
2019-01-29T02:18:31.168Z,100200.16
2019-01-29T02:23:24.056Z,100201.84
2019-01-29T02:28:16.916Z,100207.17
2019-01-29T02:33:09.691Z,100209.92
2019-01-29T02:38:02.671Z,100216.13
2019-01-29T02:42:55.495Z,100209.08
2019-01-29T02:47:48.547Z,100212.67
2019-01-29T02:52:41.387Z,100217.71
2019-01-29T02:57:34.245Z,100216.76
2019-01-29T03:02:27.060Z,100222.03
2019-01-29T03:07:19.863Z,100225.94
2019-01-29T03:12:12.737Z,100227.80
2019-01-29T03:17:05.593Z,100222.92
2019-01-29T03:21:58.440Z,100225.88
2019-01-29T03:26:51.261Z,100226.23
2019-01-29T03:31:44.117Z,100232.52
2019-01-29T03:36:36.952Z,100233.68
2019-01-29T03:41:30.840Z,100234.09
2019-01-29T03:46:23.672Z,100236.91
2019-01-29T03:51:16.492Z,100235.97
2019-01-29T03:56:09.342Z,100231.79
2019-01-29T04:01:02.209Z,100233.30
2019-01-29T04:05:55.030Z,100238.14
2019-01-29T04:10:47.910Z,100240.22
2019-01-29T04:15:40.717Z,100240.44
2019-01-29T04:20:33.607Z,100245.04
2019-01-29T04:25:26.416Z,100241.06
2019-01-29T04:30:21.257Z,100242.99
2019-01-29T04:35:14.198Z,100245.26
2019-01-29T04:40:09.877Z,100247.01
2019-01-29T04:45:03.974Z,100248.19
2019-01-29T04:49:56.857Z,100244.22
2019-01-29T04:54:49.655Z,100234.31
2019-01-29T04:59:42.481Z,100233.41
2019-01-29T05:04:35.397Z,100233.75
2019-01-29T05:09:28.237Z,100224.39
2019-01-29T05:14:21.038Z,100220.16
2019-01-29T05:19:13.905Z,100226.82
2019-01-29T05:24:07.328Z,100225.72
2019-01-29T05:29:00.415Z,100224.13
2019-01-29T05:33:53.280Z,100220.92
2019-01-29T05:38:46.113Z,100223.72
2019-01-29T05:43:38.989Z,100220.83
2019-01-29T05:48:31.871Z,100217.14
2019-01-29T05:53:24.726Z,100219.86
2019-01-29T05:58:17.572Z,100215.91
2019-01-29T06:03:10.405Z,100213.53
2019-01-29T06:08:05.157Z,100209.39
2019-01-29T06:12:58.003Z,100206.90
2019-01-29T06:17:51.054Z,100210.08
2019-01-29T06:22:43.879Z,100208.55
2019-01-29T06:27:36.705Z,100216.78
2019-01-29T06:32:29.632Z,100217.06
2019-01-29T06:37:22.579Z,100224.28
2019-01-29T06:42:15.399Z,100226.17
2019-01-29T06:47:08.241Z,100217.57
2019-01-29T06:52:01.104Z,100222.20
2019-01-29T06:56:53.906Z,100235.47
2019-01-29T07:01:46.758Z,100238.20
2019-01-29T07:06:39.581Z,100243.38
2019-01-29T07:11:32.470Z,100236.98
2019-01-29T07:16:50.738Z,100241.64
2019-01-29T07:21:43.568Z,100237.11
2019-01-29T07:26:36.416Z,100243.58
2019-01-29T07:31:29.242Z,100244.14
2019-01-29T07:36:22.108Z,100245.91
2019-01-29T07:41:14.931Z,100247.39
2019-01-29T07:46:09.072Z,100246.89
2019-01-29T07:51:01.923Z,100246.69
2019-01-29T07:55:59.039Z,100234.75
2019-01-29T08:00:51.871Z,100232.63
2019-01-29T08:05:45.446Z,100237.97
2019-01-29T08:10:38.561Z,100235.70
2019-01-29T08:15:31.425Z,100230.95
2019-01-29T08:20:24.359Z,100235.16
2019-01-29T08:25:17.181Z,100237.20
2019-01-29T08:30:10.510Z,100231.34
2019-01-29T08:35:04.362Z,100231.77
2019-01-29T08:39:57.228Z,100228.67
2019-01-29T08:44:50.106Z,100227.55
2019-01-29T08:49:43.364Z,100217.13
2019-01-29T08:54:36.469Z,100215.20
2019-01-29T08:59:29.407Z,100210.30
2019-01-29T09:04:22.685Z,100208.98
2019-01-29T09:09:15.558Z,100205.72
2019-01-29T09:14:08.727Z,100211.66
2019-01-29T09:19:01.926Z,100204.41
2019-01-29T09:23:55.393Z,100199.42
2019-01-29T09:28:48.592Z,100200.45
2019-01-29T09:33:41.564Z,100195.95
2019-01-29T09:38:34.755Z,100183.67
2019-01-29T09:43:27.669Z,100181.62
2019-01-29T09:48:20.561Z,100178.73
2019-01-29T09:53:13.574Z,100162.05
2019-01-29T09:58:06.469Z,100157.03
2019-01-29T10:02:59.320Z,100151.48
2019-01-29T10:07:52.315Z,100152.81
2019-01-29T10:12:45.172Z,100142.75
2019-01-29T10:17:38.515Z,100133.53
2019-01-29T10:22:31.473Z,100119.37
2019-01-29T10:27:24.724Z,100128.95
2019-01-29T10:32:17.664Z,100131.70
2019-01-29T10:37:10.597Z,100117.50
2019-01-29T10:42:05.958Z,100122.97
2019-01-29T10:46:59.132Z,100116.76
2019-01-29T10:51:52.068Z,100113.81
2019-01-29T10:56:44.918Z,100099.84
2019-01-29T11:01:37.865Z,100085.34
2019-01-29T11:06:30.765Z,100086.13
2019-01-29T11:11:23.622Z,100074.62
2019-01-29T11:16:16.583Z,100071.99
2019-01-29T11:21:09.419Z,100055.64
2019-01-29T11:26:02.373Z,100047.44
2019-01-29T11:30:55.221Z,100044.05
2019-01-29T11:35:48.145Z,100038.34
2019-01-29T11:40:41.543Z,100030.11
2019-01-29T11:45:44.544Z,100018.59
2019-01-29T11:50:37.533Z,100011.02
2019-01-29T11:55:30.405Z,100001.07
2019-01-29T12:00:32.876Z,100000.40
2019-01-29T12:05:25.855Z,99988.23
2019-01-29T12:10:19.144Z,99989.61
2019-01-29T12:15:14.292Z,99980.36
2019-01-29T12:20:09.929Z,99969.23
2019-01-29T12:25:03.330Z,99972.50
2019-01-29T12:29:56.195Z,99957.63
2019-01-29T12:34:49.120Z,99945.13
2019-01-29T12:39:42.081Z,99939.55
2019-01-29T12:44:34.889Z,99937.37
2019-01-29T12:49:27.913Z,99924.67
2019-01-29T12:54:20.764Z,99923.87
2019-01-29T12:59:13.603Z,99916.50
2019-01-29T13:04:06.506Z,99905.77
2019-01-29T13:08:59.381Z,99897.09
2019-01-29T13:13:52.304Z,99901.13
2019-01-29T13:18:45.190Z,99891.53
2019-01-29T13:23:38.077Z,99892.92
2019-01-29T13:28:31.189Z,99882.89
2019-01-29T13:33:24.203Z,99880.09
2019-01-29T13:38:17.240Z,99881.30
2019-01-29T13:43:10.180Z,99870.48
2019-01-29T13:48:03.799Z,99870.16
2019-01-29T13:52:56.771Z,99859.55
2019-01-29T13:57:49.648Z,99855.50
2019-01-29T14:02:42.809Z,99849.91
2019-01-29T14:07:35.740Z,99846.96
2019-01-29T14:12:28.775Z,99841.47
2019-01-29T14:17:21.801Z,99844.81
2019-01-29T14:22:14.767Z,99838.30
2019-01-29T14:27:07.777Z,99837.77
2019-01-29T14:32:00.754Z,99835.88
2019-01-29T14:36:53.578Z,99831.25
2019-01-29T14:41:46.681Z,99823.67
2019-01-29T14:46:39.664Z,99818.95
2019-01-29T14:51:32.742Z,99815.75
2019-01-29T14:56:25.815Z,99808.02
2019-01-29T15:01:19.301Z,99806.47
2019-01-29T15:06:12.628Z,99794.30
2019-01-29T15:11:05.597Z,99794.00
2019-01-29T15:16:06.854Z,99779.75
2019-01-29T15:20:59.708Z,99776.98
2019-01-29T15:25:52.734Z,99773.03
2019-01-29T15:30:45.730Z,99767.56
2019-01-29T15:35:38.661Z,99770.20
2019-01-29T15:40:32.015Z,99754.98
2019-01-29T15:45:25.007Z,99753.19
2019-01-29T15:50:20.377Z,99750.47
2019-01-29T15:55:14.479Z,99735.98
2019-01-29T16:00:22.942Z,99732.81
2019-01-29T16:05:20.211Z,99723.31
2019-01-29T16:10:17.031Z,99728.48
2019-01-29T16:15:12.637Z,99723.33
2019-01-29T16:20:07.043Z,99716.22
2019-01-29T16:24:59.949Z,99710.81
2019-01-29T16:29:57.812Z,99707.02
2019-01-29T16:34:50.633Z,99701.09
2019-01-29T16:39:43.718Z,99689.18
2019-01-29T16:44:36.662Z,99682.59
2019-01-29T16:49:29.497Z,99678.02
2019-01-29T16:54:22.546Z,99669.97
2019-01-29T16:59:15.362Z,99659.44
2019-01-29T17:04:08.185Z,99650.21
2019-01-29T17:09:01.240Z,99643.59
2019-01-29T17:13:54.078Z,99641.73
2019-01-29T17:18:46.951Z,99633.55
2019-01-29T17:23:39.880Z,99630.80
2019-01-29T17:28:32.751Z,99621.78
2019-01-29T17:33:25.870Z,99615.09
2019-01-29T17:38:18.831Z,99603.88
2019-01-29T17:43:11.741Z,99595.72
2019-01-29T17:48:05.463Z,99601.67
2019-01-29T17:52:58.425Z,99589.05
2019-01-29T17:57:51.315Z,99576.09
2019-01-29T18:02:44.153Z,99567.23
2019-01-29T18:07:37.069Z,99560.39
2019-01-29T18:12:29.928Z,99550.41
2019-01-29T18:17:22.931Z,99539.31
2019-01-29T18:22:15.818Z,99526.97
2019-01-29T18:27:08.731Z,99521.31
2019-01-29T18:32:01.606Z,99510.36
2019-01-29T18:36:54.517Z,99509.25
2019-01-29T18:41:47.433Z,99506.23
2019-01-29T18:46:40.396Z,99489.67
2019-01-29T18:51:33.332Z,99481.23
2019-01-29T18:56:26.330Z,99472.41
2019-01-29T19:01:19.273Z,99467.05
2019-01-29T19:06:13.772Z,99468.45
2019-01-29T19:11:07.894Z,99452.66
2019-01-29T19:16:00.845Z,99454.21
2019-01-29T19:20:53.812Z,99444.27
2019-01-29T19:25:46.859Z,99438.95
2019-01-29T19:30:39.723Z,99437.34
2019-01-29T19:35:32.660Z,99439.32
2019-01-29T19:40:25.500Z,99425.23
2019-01-29T19:45:24.840Z,99423.23
2019-01-29T19:50:20.775Z,99412.91
2019-01-29T19:55:13.648Z,99414.67
2019-01-29T20:00:13.777Z,99405.98
2019-01-29T20:05:07.823Z,99399.42
2019-01-29T20:10:00.799Z,99394.55
2019-01-29T20:14:53.722Z,99386.42
2019-01-29T20:19:46.687Z,99383.28
2019-01-29T20:24:39.576Z,99368.06
2019-01-29T20:29:32.442Z,99361.25
2019-01-29T20:34:25.296Z,99360.88
2019-01-29T20:39:18.230Z,99354.63
2019-01-29T20:44:11.112Z,99348.45
2019-01-29T20:49:03.975Z,99340.48
2019-01-29T20:53:56.988Z,99335.80
2019-01-29T20:58:52.636Z,99321.92
2019-01-29T21:03:44.694Z,99320.85
2019-01-29T21:08:37.620Z,99311.13
2019-01-29T21:13:30.461Z,99305.38
2019-01-29T21:18:23.457Z,99305.02
2019-01-29T21:23:16.370Z,99291.28
2019-01-29T21:28:09.233Z,99279.08
2019-01-29T21:33:02.086Z,99279.91
2019-01-29T21:37:54.937Z,99275.30
2019-01-29T21:42:47.885Z,99269.64
2019-01-29T21:47:40.690Z,99264.70
2019-01-29T21:52:33.520Z,99261.95
2019-01-29T21:57:26.345Z,99250.51
2019-01-29T22:02:19.198Z,99239.95
2019-01-29T22:07:12.031Z,99227.48
2019-01-29T22:12:04.882Z,99222.44
2019-01-29T22:16:57.676Z,99213.81
2019-01-29T22:21:50.550Z,99211.20
2019-01-29T22:26:43.389Z,99192.16
2019-01-29T22:31:36.233Z,99188.22
2019-01-29T22:36:29.387Z,99176.10
2019-01-29T22:41:22.242Z,99163.33
2019-01-29T22:46:15.103Z,99165.83
2019-01-29T22:51:07.928Z,99157.06
2019-01-29T22:56:01.017Z,99156.91
2019-01-29T23:01:37.990Z,99143.00
2019-01-29T23:06:56.415Z,99131.57
2019-01-29T23:11:51.075Z,99125.72
2019-01-29T23:16:44.695Z,99114.09
2019-01-29T23:21:38.317Z,99099.75
2019-01-29T23:26:31.765Z,99088.92
2019-01-29T23:31:25.271Z,99084.94
2019-01-29T23:36:18.361Z,99072.31
2019-01-29T23:41:12.594Z,99056.03
2019-01-29T23:46:09.451Z,99047.59
2019-01-29T23:51:02.322Z,99043.38
2019-01-29T23:55:55.955Z,99032.94
